Time;durP1;ratioP1;P1;durP2;ratioP2;P2;SDS_P1;SDS_P2;PMS_P1;PMS_P2;Temp;Humidity;BMP_temperature;BMP_pressure;BME280_temperature;BME280_humidity;BME280_pressure;Samples;Min_cycle;Max_cycle;Signal;HPM_P1;HPM_P2
2023/05/10 00:03:40;;;;;;;19.80;9.77;;;;;12.30;100369.00;;;;9783910;29;20226;-77
2023/05/10 00:08:41;;;;;;;23.37;11.27;;;;;12.30;100367.00;;;;9785998;29;21886;-77
2023/05/10 00:13:42;;;;;;;19.20;10.47;;;;;12.30;100372.00;;;;9799398;29;20219;-75
2023/05/10 00:18:44;;;;;;;23.47;11.87;;;;;12.30;100375.00;;;;9801118;29;20227;-76
2023/05/10 00:23:45;;;;;;;19.43;12.20;;;;;12.30;100366.00;;;;9788142;29;20270;-77
2023/05/10 00:28:47;;;;;;;23.70;11.50;;;;;12.40;100372.00;;;;9812888;29;20239;-79
2023/05/10 00:33:48;;;;;;;24.43;12.43;;;;;12.30;100372.00;;;;9819088;29;20240;-80
2023/05/10 00:38:50;;;;;;;24.70;12.93;;;;;12.30;100366.00;;;;9766968;29;20341;-76
2023/05/10 00:43:52;;;;;;;25.10;13.60;;;;;12.30;100364.00;;;;9803584;29;20403;-76
2023/05/10 00:48:53;;;;;;;28.97;15.40;;;;;12.30;100364.00;;;;9810096;29;20236;-76
2023/05/10 00:53:55;;;;;;;27.93;14.87;;;;;12.30;100358.00;;;;9808162;29;20250;-77
2023/05/10 00:58:57;;;;;;;23.73;13.67;;;;;12.30;100360.00;;;;9794826;29;20671;-77
2023/05/10 01:03:59;;;;;;;26.17;14.40;;;;;12.40;100359.00;;;;9815483;29;20223;-76
2023/05/10 01:09:01;;;;;;;25.57;13.90;;;;;12.40;100354.00;;;;9797880;29;20339;-76
2023/05/10 01:14:03;;;;;;;35.30;15.90;;;;;12.40;100358.00;;;;9814172;29;20424;-77
2023/05/10 01:19:18;;;;;;;22.63;13.70;;;;;12.40;100361.00;;;;9816446;29;20247;-76
2023/05/10 01:24:43;;;;;;;31.23;16.17;;;;;12.40;100360.00;;;;9783717;29;20314;-77
2023/05/10 01:29:47;;;;;;;30.30;16.00;;;;;12.40;100370.00;;;;9798728;29;20488;-76
2023/05/10 01:35:16;;;;;;;31.57;15.17;;;;;12.40;100365.00;;;;9786284;29;20322;-76
2023/05/10 01:40:36;;;;;;;29.23;16.17;;;;;12.40;100365.00;;;;9815539;29;21822;-76
2023/05/10 01:45:46;;;;;;;30.30;15.70;;;;;12.40;100363.00;;;;9815989;29;20247;-80
2023/05/10 01:50:50;;;;;;;29.20;16.17;;;;;12.40;100365.00;;;;9818548;29;20255;-79
2023/05/10 01:55:55;;;;;;;28.43;16.60;;;;;12.40;100364.00;;;;9816554;29;20278;-78
2023/05/10 02:01:00;;;;;;;27.90;16.60;;;;;12.40;100354.00;;;;9791577;29;20236;-77
2023/05/10 02:06:03;;;;;;;28.87;17.00;;;;;12.40;100373.00;;;;9808616;29;20233;-77
2023/05/10 02:11:05;;;;;;;31.47;16.47;;;;;12.30;100386.00;;;;9818652;29;20239;-77
2023/05/10 02:16:07;;;;;;;28.60;17.87;;;;;12.30;100379.00;;;;9801696;29;20238;-75
2023/05/10 02:21:11;;;;;;;34.40;18.27;;;;;12.30;100377.00;;;;9813909;29;20298;-75
2023/05/10 02:26:14;;;;;;;30.30;17.60;;;;;12.30;100390.00;;;;9811475;29;20308;-74
2023/05/10 02:31:17;;;;;;;29.43;15.93;;;;;12.30;100384.00;;;;9813881;29;20239;-77
2023/05/10 02:36:20;;;;;;;36.73;19.07;;;;;12.30;100379.00;;;;9820664;29;20258;-77
2023/05/10 02:41:24;;;;;;;32.53;17.73;;;;;12.30;100392.00;;;;9820360;29;21418;-76
2023/05/10 02:46:25;;;;;;;32.87;17.53;;;;;12.30;100397.00;;;;9803247;29;20235;-77
2023/05/10 02:51:31;;;;;;;34.23;18.37;;;;;12.30;100402.00;;;;9804883;29;20953;-77
2023/05/10 02:56:35;;;;;;;35.93;18.50;;;;;12.30;100398.00;;;;9804535;29;20263;-81
2023/05/10 03:01:36;;;;;;;32.27;18.07;;;;;12.30;100401.00;;;;9815202;29;20367;-77
2023/05/10 03:06:39;;;;;;;34.87;17.53;;;;;12.20;100400.00;;;;9818179;29;20244;-77
2023/05/10 03:12:08;;;;;;;34.10;16.83;;;;;12.20;100406.00;;;;9803556;29;20715;-76
2023/05/10 03:17:47;;;;;;;33.83;17.73;;;;;12.10;100400.00;;;;9802994;29;20243;-76
2023/05/10 03:22:55;;;;;;;32.43;17.70;;;;;12.10;100410.00;;;;9792085;29;20228;-76
2023/05/10 03:27:57;;;;;;;38.10;18.13;;;;;12.10;100416.00;;;;9788759;29;20239;-80
2023/05/10 03:33:05;;;;;;;38.20;19.07;;;;;12.10;100427.00;;;;9816964;29;20219;-82
2023/05/10 03:38:09;;;;;;;36.13;19.00;;;;;12.10;100423.00;;;;9802902;29;21633;-83
2023/05/10 03:43:11;;;;;;;39.13;21.10;;;;;12.00;100435.00;;;;9816615;29;20619;-82
2023/05/10 03:48:13;;;;;;;41.93;19.87;;;;;11.90;100434.00;;;;9816967;29;20255;-80
2023/05/10 03:53:16;;;;;;;44.93;20.90;;;;;11.90;100436.00;;;;9793637;29;20631;-79
2023/05/10 03:58:18;;;;;;;36.13;20.63;;;;;11.80;100445.00;;;;9811106;29;20254;-78
2023/05/10 04:03:20;;;;;;;36.93;18.23;;;;;11.70;100450.00;;;;9788873;29;20319;-80
2023/05/10 04:08:21;;;;;;;36.67;20.80;;;;;11.70;100460.00;;;;9800961;29;20735;-78
2023/05/10 04:13:23;;;;;;;40.40;21.30;;;;;11.70;100448.00;;;;9800008;29;20410;-79
2023/05/10 04:18:25;;;;;;;40.87;21.70;;;;;11.70;100450.00;;;;9773272;29;20958;-79
2023/05/10 04:23:27;;;;;;;44.00;22.13;;;;;11.70;100451.00;;;;9807568;29;20223;-78
2023/05/10 04:28:28;;;;;;;49.33;22.67;;;;;11.70;100448.00;;;;9805026;29;20673;-78
2023/05/10 04:33:30;;;;;;;46.90;23.43;;;;;11.70;100455.00;;;;9806145;29;20251;-79
2023/05/10 04:38:32;;;;;;;51.77;23.57;;;;;11.70;100451.00;;;;9805305;29;20794;-80
2023/05/10 04:43:33;;;;;;;51.30;24.13;;;;;11.80;100456.00;;;;9791654;29;20293;-78
2023/05/10 04:48:34;;;;;;;48.97;23.37;;;;;11.70;100448.00;;;;9804301;29;20724;-78
2023/05/10 04:53:36;;;;;;;55.50;25.13;;;;;11.80;100457.00;;;;9811164;29;21697;-74
2023/05/10 04:58:38;;;;;;;54.37;25.27;;;;;11.80;100455.00;;;;9801357;29;20237;-77
2023/05/10 05:03:39;;;;;;;49.20;23.67;;;;;11.80;100452.00;;;;9820634;29;20232;-77
2023/05/10 05:08:41;;;;;;;51.80;24.73;;;;;11.90;100460.00;;;;9822572;29;20329;-78
2023/05/10 05:13:43;;;;;;;53.93;27.10;;;;;12.00;100456.00;;;;9820418;29;20231;-76
2023/05/10 05:18:44;;;;;;;60.17;26.80;;;;;12.00;100452.00;;;;9819770;29;20238;-76
2023/05/10 05:23:46;;;;;;;50.40;24.40;;;;;12.00;100467.00;;;;9814933;29;21801;-76
2023/05/10 05:28:48;;;;;;;57.03;26.70;;;;;12.00;100473.00;;;;9808931;29;20235;-77
2023/05/10 05:33:49;;;;;;;56.97;25.47;;;;;12.20;100472.00;;;;9793552;29;20220;-76
2023/05/10 05:38:51;;;;;;;53.07;25.00;;;;;12.40;100484.00;;;;9811213;29;20274;-76
2023/05/10 05:43:52;;;;;;;45.13;23.23;;;;;12.60;100493.00;;;;9815239;29;20378;-76
2023/05/10 05:48:54;;;;;;;53.70;25.23;;;;;12.70;100498.00;;;;9809859;29;20428;-75
2023/05/10 05:53:55;;;;;;;50.40;24.67;;;;;12.90;100500.00;;;;9778343;29;21712;-75
2023/05/10 05:58:56;;;;;;;55.10;24.53;;;;;13.20;100497.00;;;;9797225;29;21520;-78
2023/05/10 06:03:58;;;;;;;54.23;25.13;;;;;13.50;100506.00;;;;9789170;29;20586;-76
2023/05/10 06:08:59;;;;;;;49.03;23.50;;;;;13.70;100509.00;;;;9800779;29;20336;-76
2023/05/10 06:14:01;;;;;;;45.63;23.85;;;;;13.90;100502.00;;;;9789422;29;20238;-77
2023/05/10 06:19:03;;;;;;;53.30;25.33;;;;;14.10;100506.00;;;;9792026;29;20223;-77
2023/05/10 06:24:06;;;;;;;45.40;23.95;;;;;14.20;100515.00;;;;9787271;29;21181;-77
2023/05/10 06:29:07;;;;;;;40.58;23.02;;;;;14.40;100521.00;;;;9817300;29;20860;-76
2023/05/10 06:34:09;;;;;;;48.83;23.90;;;;;14.80;100534.00;;;;9811053;29;20258;-75
2023/05/10 06:39:11;;;;;;;41.27;22.43;;;;;15.30;100533.00;;;;9805842;29;20258;-77
2023/05/10 06:44:13;;;;;;;39.40;22.63;;;;;15.10;100543.00;;;;9791547;29;20265;-77
2023/05/10 06:49:14;;;;;;;31.17;20.40;;;;;14.80;100549.00;;;;9790885;29;21492;-76
2023/05/10 06:54:15;;;;;;;35.35;20.58;;;;;14.60;100552.00;;;;9804898;29;20254;-77
2023/05/10 06:59:18;;;;;;;35.45;20.80;;;;;14.70;100549.00;;;;9827303;29;20234;-77
2023/05/10 07:04:20;;;;;;;37.42;22.65;;;;;15.10;100556.00;;;;9811367;29;20228;-78
2023/05/10 07:09:21;;;;;;;40.95;22.23;;;;;15.40;100556.00;;;;9829067;29;20242;-78
2023/05/10 07:14:23;;;;;;;40.78;23.80;;;;;15.10;100567.00;;;;9821635;29;21374;-78
2023/05/10 07:19:24;;;;;;;32.70;21.00;;;;;14.70;100574.00;;;;9805242;29;20292;-77
2023/05/10 07:24:25;;;;;;;26.08;14.07;;;;;14.40;100581.00;;;;9808089;29;20226;-75
2023/05/10 07:29:27;;;;;;;28.63;17.20;;;;;14.40;100587.00;;;;9809614;29;20763;-75
2023/05/10 07:34:29;;;;;;;28.85;17.40;;;;;14.70;100589.00;;;;9805244;29;20254;-76
2023/05/10 07:39:31;;;;;;;30.52;18.25;;;;;14.40;100597.00;;;;9792955;29;20750;-75
2023/05/10 07:44:32;;;;;;;30.10;17.10;;;;;14.20;100599.00;;;;9807362;29;20247;-75
2023/05/10 07:49:33;;;;;;;29.23;16.15;;;;;14.40;100601.00;;;;9822196;29;20234;-75
2023/05/10 07:54:35;;;;;;;30.40;16.55;;;;;14.50;100608.00;;;;9813679;29;20346;-80
2023/05/10 07:59:36;;;;;;;25.50;15.52;;;;;14.50;100611.00;;;;9818967;29;20223;-80
2023/05/10 08:04:38;;;;;;;28.63;16.00;;;;;14.50;100617.00;;;;9816828;29;20314;-80
2023/05/10 08:09:39;;;;;;;31.02;16.52;;;;;14.50;100616.00;;;;9816507;29;20235;-80
2023/05/10 08:14:41;;;;;;;25.85;15.13;;;;;14.40;100617.00;;;;9797491;29;20265;-78
2023/05/10 08:19:42;;;;;;;30.77;14.00;;;;;14.50;100620.00;;;;9810882;29;20235;-77
2023/05/10 08:24:44;;;;;;;26.02;13.82;;;;;14.70;100618.00;;;;9814516;29;21893;-76
2023/05/10 08:29:45;;;;;;;25.13;14.13;;;;;15.00;100621.00;;;;9807248;29;20257;-77
2023/05/10 08:34:51;;;;;;;31.25;14.35;;;;;15.30;100631.00;;;;9798110;29;20231;-77
2023/05/10 08:39:53;;;;;;;27.40;14.50;;;;;15.60;100629.00;;;;9812613;29;20318;-77
2023/05/10 08:44:55;;;;;;;21.10;12.93;;;;;16.10;100627.00;;;;9796010;29;20231;-77
2023/05/10 08:49:59;;;;;;;23.00;12.50;;;;;15.60;100639.00;;;;9824059;29;20846;-77
2023/05/10 08:55:00;;;;;;;21.02;11.85;;;;;15.50;100652.00;;;;9827457;29;20346;-77
2023/05/10 09:00:02;;;;;;;19.58;11.50;;;;;15.40;100650.00;;;;9790039;29;20239;-77
2023/05/10 09:05:06;;;;;;;19.10;11.85;;;;;15.40;100658.00;;;;9775021;29;20232;-76
2023/05/10 09:10:09;;;;;;;20.17;12.07;;;;;15.50;100665.00;;;;9816471;29;20313;-76
2023/05/10 09:15:10;;;;;;;17.15;11.40;;;;;15.40;100672.00;;;;9817057;29;20316;-74
2023/05/10 09:20:12;;;;;;;17.60;11.30;;;;;15.50;100672.00;;;;9816101;29;20217;-75
2023/05/10 09:25:15;;;;;;;15.00;10.25;;;;;15.20;100682.00;;;;9817578;29;20311;-75
2023/05/10 09:30:24;;;;;;;14.00;9.85;;;;;14.50;100686.00;;;;9817083;29;20259;-77
2023/05/10 09:35:27;;;;;;;15.35;10.18;;;;;14.60;100694.00;;;;9814888;29;20684;-78
2023/05/10 09:40:31;;;;;;;13.75;8.65;;;;;14.40;100699.00;;;;9815747;29;20224;-75
2023/05/10 09:45:35;;;;;;;17.10;10.70;;;;;14.50;100700.00;;;;9811485;29;20827;-77
2023/05/10 09:50:40;;;;;;;15.73;9.20;;;;;14.80;100701.00;;;;9809166;29;20263;-76
2023/05/10 09:55:44;;;;;;;11.50;8.05;;;;;15.20;100697.00;;;;9795560;29;20904;-77
2023/05/10 10:00:52;;;;;;;10.38;7.25;;;;;15.60;100696.00;;;;9815221;29;20434;-77
2023/05/10 10:05:55;;;;;;;11.23;6.57;;;;;15.70;100701.00;;;;9817313;29;20224;-77
2023/05/10 10:10:57;;;;;;;9.75;5.85;;;;;15.60;100706.00;;;;9814744;29;20319;-81
2023/05/10 10:16:02;;;;;;;10.38;6.18;;;;;15.90;100706.00;;;;9827728;29;20261;-79
2023/05/10 10:21:03;;;;;;;7.53;5.60;;;;;16.20;100715.00;;;;9829574;29;20231;-78
2023/05/10 10:26:05;;;;;;;7.85;6.00;;;;;16.10;100713.00;;;;9816236;29;20223;-80
2023/05/10 10:31:38;;;;;;;9.65;7.35;;;;;16.00;100716.00;;;;9803811;29;20490;-77
2023/05/10 10:36:44;;;;;;;7.35;6.43;;;;;15.80;100721.00;;;;9824793;29;20599;-77
2023/05/10 10:41:55;;;;;;;9.68;6.07;;;;;15.40;100715.00;;;;9817721;29;20428;-77
2023/05/10 10:47:12;;;;;;;9.40;7.22;;;;;15.30;100712.00;;;;9810610;29;20339;-78
2023/05/10 10:52:20;;;;;;;10.00;7.10;;;;;15.30;100711.00;;;;9796365;29;20246;-77
2023/05/10 10:57:21;;;;;;;7.50;6.20;;;;;15.30;100725.00;;;;9821404;29;20224;-80
2023/05/10 11:02:42;;;;;;;8.77;5.80;;;;;15.20;100713.00;;;;9845485;29;20227;-76
2023/05/10 11:07:54;;;;;;;9.90;6.63;;;;;15.10;100718.00;;;;9809387;29;20792;-77
2023/05/10 11:13:01;;;;;;;8.20;6.28;;;;;15.20;100712.00;;;;9821182;29;21100;-78
2023/05/10 11:18:20;;;;;;;7.55;6.07;;;;;15.40;100708.00;;;;9795684;29;21172;-77
2023/05/10 11:23:22;;;;;;;9.75;6.72;;;;;15.40;100702.00;;;;9788379;29;20254;-77
2023/05/10 11:28:25;;;;;;;6.80;5.35;;;;;15.40;100706.00;;;;9788543;29;20271;-76
2023/05/10 11:33:26;;;;;;;6.45;5.38;;;;;15.40;100713.00;;;;9809791;29;20293;-77
2023/05/10 11:38:28;;;;;;;7.28;5.63;;;;;15.40;100721.00;;;;9814080;29;20704;-78
2023/05/10 11:43:30;;;;;;;8.07;5.65;;;;;15.40;100719.00;;;;9811280;29;20223;-77
2023/05/10 11:48:32;;;;;;;9.63;5.72;;;;;15.60;100712.00;;;;9795448;29;21495;-77
2023/05/10 11:53:33;;;;;;;8.52;6.47;;;;;15.90;100711.00;;;;9812673;29;20338;-76
2023/05/10 11:58:36;;;;;;;7.45;5.82;;;;;16.30;100702.00;;;;9819359;29;20685;-76
2023/05/10 12:03:38;;;;;;;9.18;6.03;;;;;16.80;100700.00;;;;9803887;29;21604;-77
2023/05/10 12:08:45;;;;;;;6.55;5.50;;;;;17.30;100704.00;;;;9803966;29;20239;-77
2023/05/10 12:13:47;;;;;;;6.43;5.65;;;;;17.80;100701.00;;;;9810206;29;20284;-77
2023/05/10 12:18:53;;;;;;;7.43;5.72;;;;;18.10;100697.00;;;;9811472;29;20261;-77
2023/05/10 12:24:00;;;;;;;7.88;6.18;;;;;18.40;100695.00;;;;9817325;29;21196;-76
2023/05/10 12:29:18;;;;;;;8.50;5.95;;;;;19.10;100690.00;;;;9826925;29;20250;-75
2023/05/10 12:34:29;;;;;;;6.05;5.45;;;;;20.20;100681.00;;;;9808569;29;20308;-77
2023/05/10 12:39:39;;;;;;;10.73;6.40;;;;;21.50;100679.00;;;;9829021;29;21491;-73
2023/05/10 12:44:41;;;;;;;7.32;6.15;;;;;21.50;100692.00;;;;9816195;29;20228;-79
2023/05/10 12:49:42;;;;;;;7.78;6.03;;;;;22.50;100685.00;;;;9829853;29;20309;-79
2023/05/10 12:54:43;;;;;;;6.60;4.97;;;;;22.70;100688.00;;;;9815291;29;20842;-80
2023/05/10 12:59:44;;;;;;;6.45;5.15;;;;;23.10;100698.00;;;;9830603;29;20227;-79
2023/05/10 13:04:46;;;;;;;6.28;5.68;;;;;23.20;100698.00;;;;9830770;29;21010;-80
2023/05/10 13:09:51;;;;;;;7.07;6.38;;;;;23.10;100704.00;;;;9826030;29;20334;-79
2023/05/10 13:14:52;;;;;;;6.55;5.95;;;;;22.60;100699.00;;;;9811650;29;20254;-80
2023/05/10 13:19:53;;;;;;;8.13;5.70;;;;;22.20;100709.00;;;;9818513;29;20237;-79
2023/05/10 13:24:55;;;;;;;7.57;6.88;;;;;21.90;100720.00;;;;9819302;29;20226;-81
2023/05/10 13:29:59;;;;;;;7.10;5.68;;;;;21.80;100723.00;;;;9827075;29;21262;-80
2023/05/10 13:35:01;;;;;;;8.00;6.35;;;;;21.90;100722.00;;;;9823414;29;20219;-77
2023/05/10 13:40:03;;;;;;;6.80;5.80;;;;;21.70;100737.00;;;;9829847;29;20764;-76
2023/05/10 13:45:06;;;;;;;6.18;4.30;;;;;21.50;100734.00;;;;9830447;29;20224;-79
2023/05/10 13:50:08;;;;;;;5.65;4.80;;;;;21.20;100737.00;;;;9811110;29;20718;-78
2023/05/10 13:55:12;;;;;;;4.20;3.80;;;;;20.60;100735.00;;;;9815917;29;20942;-78
2023/05/10 14:00:16;;;;;;;5.93;4.78;;;;;20.60;100734.00;;;;9801479;29;20228;-77
2023/05/10 14:05:18;;;;;;;5.32;4.82;;;;;21.00;100736.00;;;;9816216;29;20228;-79
2023/05/10 14:10:23;;;;;;;8.43;5.53;;;;;21.00;100736.00;;;;9830429;29;20976;-78
2023/05/10 14:15:24;;;;;;;6.88;5.07;;;;;20.80;100729.00;;;;9813487;29;20243;-80
2023/05/10 14:20:26;;;;;;;7.22;5.50;;;;;20.50;100724.00;;;;9839448;29;20235;-79
2023/05/10 14:25:27;;;;;;;6.93;5.43;;;;;20.60;100722.00;;;;9835976;29;20270;-78
2023/05/10 14:30:29;;;;;;;8.88;6.45;;;;;20.10;100716.00;;;;9794466;29;20247;-77
2023/05/10 14:35:33;;;;;;;10.02;8.70;;;;;19.70;100729.00;;;;9816165;29;20223;-77
2023/05/10 14:40:34;;;;;;;10.07;8.32;;;;;19.60;100738.00;;;;9810826;29;20226;-77
2023/05/10 14:45:36;;;;;;;13.73;9.73;;;;;19.40;100743.00;;;;9806794;29;20227;-77
2023/05/10 14:50:38;;;;;;;12.40;9.73;;;;;19.40;100745.00;;;;9809213;29;20239;-79
2023/05/10 14:55:39;;;;;;;12.15;10.60;;;;;19.30;100737.00;;;;9793649;29;20227;-77
2023/05/10 15:00:41;;;;;;;14.25;9.88;;;;;18.90;100740.00;;;;9805795;29;20231;-77
2023/05/10 15:05:43;;;;;;;10.68;8.77;;;;;18.50;100743.00;;;;9833260;29;20385;-76
2023/05/10 15:10:44;;;;;;;13.85;10.32;;;;;17.70;100745.00;;;;9834641;29;20246;-77
2023/05/10 15:15:45;;;;;;;29.80;11.95;;;;;16.90;100747.00;;;;9818530;29;21178;-78
2023/05/10 15:20:47;;;;;;;11.50;10.23;;;;;16.00;100753.00;;;;9830334;29;20212;-78
2023/05/10 15:25:52;;;;;;;11.60;8.90;;;;;15.40;100764.00;;;;9800702;29;20223;-75
2023/05/10 15:30:53;;;;;;;11.43;6.57;;;;;14.80;100774.00;;;;9805614;29;20968;-75
2023/05/10 15:35:54;;;;;;;9.98;6.55;;;;;14.60;100770.00;;;;9797315;29;20263;-76
2023/05/10 15:40:57;;;;;;;9.82;6.50;;;;;14.40;100779.00;;;;9799597;29;21345;-76
2023/05/10 15:45:59;;;;;;;11.93;7.38;;;;;14.30;100784.00;;;;9797196;29;20339;-76
2023/05/10 15:51:00;;;;;;;10.60;6.55;;;;;14.30;100790.00;;;;9803462;29;20318;-75
2023/05/10 15:56:02;;;;;;;12.75;6.32;;;;;14.30;100798.00;;;;9774401;29;20224;-76
2023/05/10 16:01:07;;;;;;;9.68;6.40;;;;;14.50;100774.00;;;;9777800;29;20223;-79
2023/05/10 16:06:08;;;;;;;8.30;5.97;;;;;14.70;100784.00;;;;9816957;29;20317;-77
2023/05/10 16:11:10;;;;;;;10.07;5.90;;;;;15.00;100782.00;;;;9802982;29;20239;-78
2023/05/10 16:16:11;;;;;;;11.02;5.30;;;;;15.30;100780.00;;;;9822790;29;20243;-78
2023/05/10 16:21:13;;;;;;;10.50;5.50;;;;;15.50;100785.00;;;;9823121;29;20227;-78
2023/05/10 16:26:14;;;;;;;16.25;5.22;;;;;15.60;100787.00;;;;9824220;29;20370;-77
2023/05/10 16:31:17;;;;;;;10.43;5.38;;;;;15.80;100787.00;;;;9813136;29;21788;-77
2023/05/10 16:36:18;;;;;;;13.45;7.18;;;;;16.20;100783.00;;;;9813819;29;20224;-77
2023/05/10 16:41:20;;;;;;;9.75;6.75;;;;;16.50;100776.00;;;;9785297;29;20231;-79
2023/05/10 16:46:21;;;;;;;13.65;8.32;;;;;16.80;100781.00;;;;9807359;29;20487;-76
2023/05/10 16:51:23;;;;;;;12.45;8.30;;;;;16.90;100780.00;;;;9807274;29;20726;-76
2023/05/10 16:56:25;;;;;;;14.00;9.27;;;;;16.20;100789.00;;;;9812796;29;20234;-78
2023/05/10 17:01:26;;;;;;;14.63;9.52;;;;;15.80;100794.00;;;;9807449;29;21699;-77
2023/05/10 17:06:28;;;;;;;13.35;8.23;;;;;15.50;100786.00;;;;9801756;29;20706;-75
2023/05/10 17:11:30;;;;;;;17.83;10.43;;;;;15.00;100800.00;;;;9793234;29;20723;-77
2023/05/10 17:16:32;;;;;;;14.85;8.60;;;;;14.70;100812.00;;;;9812784;29;20227;-77
2023/05/10 17:21:33;;;;;;;17.45;9.20;;;;;14.50;100807.00;;;;9819105;29;20311;-81
2023/05/10 17:26:35;;;;;;;17.98;10.40;;;;;14.40;100816.00;;;;9819015;29;20238;-81
2023/05/10 17:31:37;;;;;;;16.83;10.02;;;;;14.30;100810.00;;;;9798259;29;20857;-81
2023/05/10 17:36:39;;;;;;;17.10;10.10;;;;;14.40;100813.00;;;;9818640;29;20243;-81
2023/05/10 17:41:40;;;;;;;18.48;10.18;;;;;14.30;100810.00;;;;9791238;29;20230;-79
2023/05/10 17:46:42;;;;;;;19.85;9.90;;;;;14.30;100810.00;;;;9784939;29;20576;-83
2023/05/10 17:51:46;;;;;;;19.48;9.52;;;;;14.10;100811.00;;;;9812559;29;20326;-83
2023/05/10 17:56:48;;;;;;;15.43;9.75;;;;;14.00;100818.00;;;;9776263;29;20219;-76
2023/05/10 18:01:49;;;;;;;20.30;11.07;;;;;13.80;100811.00;;;;9789071;29;20324;-76
2023/05/10 18:07:00;;;;;;;22.93;11.50;;;;;13.50;100823.00;;;;9790698;29;20231;-76
2023/05/10 18:12:02;;;;;;;26.03;12.07;;;;;13.30;100826.00;;;;9805472;29;21116;-76
2023/05/10 18:17:03;;;;;;;26.17;12.33;;;;;13.20;100825.00;;;;9761240;29;20307;-76
2023/05/10 18:22:05;;;;;;;21.57;11.77;;;;;13.10;100832.00;;;;9790614;29;20731;-77
2023/05/10 18:27:10;;;;;;;20.00;11.93;;;;;13.00;100832.00;;;;9778385;29;20276;-76
2023/05/10 18:32:12;;;;;;;21.03;12.97;;;;;12.90;100833.00;;;;9791104;29;20247;-77
2023/05/10 18:37:14;;;;;;;21.57;13.20;;;;;12.80;100833.00;;;;9809479;29;20232;-76
2023/05/10 18:42:16;;;;;;;19.63;12.03;;;;;12.70;100839.00;;;;9797214;29;20219;-77
2023/05/10 18:47:18;;;;;;;23.93;13.03;;;;;12.70;100835.00;;;;9795172;29;20836;-77
2023/05/10 18:52:19;;;;;;;25.17;13.03;;;;;12.70;100833.00;;;;9808934;29;20239;-78
2023/05/10 18:57:20;;;;;;;23.27;14.10;;;;;12.70;100843.00;;;;9792430;29;20219;-77
2023/05/10 19:02:24;;;;;;;21.80;14.23;;;;;12.60;100845.00;;;;9803882;29;21017;-77
2023/05/10 19:07:25;;;;;;;20.73;12.43;;;;;12.60;100837.00;;;;9789510;29;20347;-76
2023/05/10 19:12:27;;;;;;;26.83;14.30;;;;;12.60;100849.00;;;;9804882;29;20849;-77
2023/05/10 19:17:28;;;;;;;20.93;13.90;;;;;12.60;100851.00;;;;9802968;29;21542;-77
2023/05/10 19:22:32;;;;;;;22.30;14.37;;;;;12.60;100848.00;;;;9810343;29;20832;-77
2023/05/10 19:27:57;;;;;;;21.87;13.93;;;;;12.60;100867.00;;;;9773395;29;20789;-75
2023/05/10 19:32:58;;;;;;;23.47;14.20;;;;;12.50;100861.00;;;;9786899;29;20324;-75
2023/05/10 19:38:00;;;;;;;25.23;14.03;;;;;12.50;100866.00;;;;9802292;29;20219;-77
2023/05/10 19:43:02;;;;;;;27.43;15.97;;;;;12.50;100878.00;;;;9816542;29;20302;-77
2023/05/10 19:48:04;;;;;;;27.70;15.63;;;;;12.50;100886.00;;;;9814987;29;20997;-77
2023/05/10 19:53:05;;;;;;;28.77;15.27;;;;;12.50;100897.00;;;;9793577;29;20227;-77
2023/05/10 19:58:07;;;;;;;24.13;14.83;;;;;12.60;100903.00;;;;9800836;29;20224;-76
2023/05/10 20:03:08;;;;;;;29.33;18.23;;;;;12.60;100904.00;;;;9826487;29;20227;-77
2023/05/10 20:08:10;;;;;;;30.73;16.83;;;;;12.70;100903.00;;;;9805984;29;20236;-77
2023/05/10 20:13:11;;;;;;;29.60;16.70;;;;;12.70;100907.00;;;;9794129;29;20280;-77
2023/05/10 20:18:13;;;;;;;28.60;16.77;;;;;12.70;100913.00;;;;9792966;29;20889;-77
2023/05/10 20:23:14;;;;;;;27.23;16.60;;;;;12.70;100917.00;;;;9823888;29;20231;-76
2023/05/10 20:28:21;;;;;;;34.20;18.50;;;;;12.70;100913.00;;;;9801181;29;20273;-76
2023/05/10 20:33:23;;;;;;;29.47;17.53;;;;;12.70;100917.00;;;;9817563;29;20230;-77
2023/05/10 20:38:25;;;;;;;25.77;16.53;;;;;12.70;100915.00;;;;9797495;29;20261;-75
2023/05/10 20:43:27;;;;;;;33.83;16.97;;;;;12.70;100909.00;;;;9816435;29;20263;-74
2023/05/10 20:48:32;;;;;;;32.43;16.27;;;;;12.70;100913.00;;;;9821028;29;20288;-75
2023/05/10 20:53:33;;;;;;;32.77;15.73;;;;;12.70;100915.00;;;;9790798;29;20953;-75
2023/05/10 20:58:36;;;;;;;32.90;19.10;;;;;12.70;100911.00;;;;9817702;29;20227;-77
2023/05/10 21:03:37;;;;;;;31.77;18.37;;;;;12.70;100905.00;;;;9828548;29;20327;-76
2023/05/10 21:08:39;;;;;;;28.60;17.03;;;;;12.70;100893.00;;;;9807637;29;20232;-77
2023/05/10 21:13:41;;;;;;;30.63;16.50;;;;;12.70;100907.00;;;;9777841;29;20251;-75
2023/05/10 21:18:42;;;;;;;28.70;16.20;;;;;12.70;100894.00;;;;9826412;29;20281;-76
2023/05/10 21:23:47;;;;;;;30.77;15.23;;;;;12.60;100909.00;;;;9827939;29;21037;-77
2023/05/10 21:28:54;;;;;;;23.63;14.30;;;;;12.60;100903.00;;;;9816139;29;20239;-76
2023/05/10 21:33:56;;;;;;;25.70;15.03;;;;;12.60;100893.00;;;;9800376;29;20235;-76
2023/05/10 21:38:57;;;;;;;23.50;16.03;;;;;12.50;100902.00;;;;9831144;29;20259;-76
2023/05/10 21:43:58;;;;;;;30.47;17.67;;;;;12.50;100896.00;;;;9818439;29;20223;-78
2023/05/10 21:49:00;;;;;;;29.23;17.90;;;;;12.50;100890.00;;;;9844281;29;20254;-80
2023/05/10 21:54:01;;;;;;;33.37;17.63;;;;;12.50;100891.00;;;;9834930;29;20235;-80
2023/05/10 21:59:03;;;;;;;32.50;17.23;;;;;12.50;100889.00;;;;9835204;29;20223;-80
2023/05/10 22:04:04;;;;;;;32.37;17.43;;;;;12.50;100889.00;;;;9818434;29;21674;-79
2023/05/10 22:09:05;;;;;;;26.60;17.00;;;;;12.40;100890.00;;;;9829788;29;20239;-78
2023/05/10 22:14:07;;;;;;;28.57;14.80;;;;;12.40;100894.00;;;;9831873;29;20302;-78
2023/05/10 22:19:08;;;;;;;28.80;16.50;;;;;12.40;100888.00;;;;9820917;29;20816;-77
2023/05/10 22:24:10;;;;;;;39.17;17.63;;;;;12.40;100892.00;;;;9825061;29;20212;-77
2023/05/10 22:29:12;;;;;;;36.87;17.50;;;;;12.40;100895.00;;;;9810253;29;20239;-76
2023/05/10 22:34:13;;;;;;;31.90;17.47;;;;;12.40;100892.00;;;;9827206;29;20321;-76
2023/05/10 22:39:15;;;;;;;32.53;18.07;;;;;12.40;100894.00;;;;9827637;29;20816;-77
2023/05/10 22:44:17;;;;;;;29.20;17.93;;;;;12.40;100899.00;;;;9830545;29;20227;-76
2023/05/10 22:49:18;;;;;;;32.30;18.00;;;;;12.30;100910.00;;;;9827244;29;20235;-76
2023/05/10 23:12:37;;;;;;;40.10;21.43;;;;;12.20;100913.00;;;;10926979;24;21362;-75
2023/05/10 23:17:39;;;;;;;27.97;16.03;;;;;12.20;100913.00;;;;9794934;29;20228;-77
2023/05/10 23:22:41;;;;;;;23.47;14.10;;;;;12.10;100908.00;;;;9806668;29;20231;-77
2023/05/10 23:27:42;;;;;;;23.23;13.37;;;;;12.00;100908.00;;;;9803954;29;20229;-76
2023/05/10 23:32:44;;;;;;;21.77;12.57;;;;;11.90;100916.00;;;;9801298;29;20220;-75
2023/05/10 23:37:45;;;;;;;26.57;13.20;;;;;11.80;100922.00;;;;9811740;29;20270;-76
2023/05/10 23:42:47;;;;;;;24.30;13.07;;;;;11.80;100909.00;;;;9811196;29;20305;-78
2023/05/10 23:47:48;;;;;;;25.27;14.73;;;;;11.70;100913.00;;;;9804812;29;20223;-76
2023/05/10 23:52:50;;;;;;;25.30;15.93;;;;;11.70;100908.00;;;;9812601;29;20899;-75
2023/05/10 23:57:52;;;;;;;29.50;16.27;;;;;11.60;100908.00;;;;9812039;29;20512;-76
